Time;durP1;ratioP1;P1;durP2;ratioP2;P2;SDS_P1;SDS_P2;PMS_P1;PMS_P2;Temp;Humidity;BMP_temperature;BMP_pressure;BME280_temperature;BME280_humidity;BME280_pressure;Samples;Min_cycle;Max_cycle;Signal;HPM_P1;HPM_P2
2021/12/18 00:00:43;;;;;;;24.43;10.17;;;5.70;99.90;;;;;;4092675;29;20469;-76
2021/12/18 00:02:45;;;;;;;23.70;10.33;;;5.70;99.90;;;;;;4092827;28;20470;-78
2021/12/18 00:04:47;;;;;;;21.10;9.40;;;5.70;99.90;;;;;;4094415;28;20553;-76
2021/12/18 00:06:50;;;;;;;24.83;10.13;;;5.60;99.90;;;;;;4094208;29;20494;-76
2021/12/18 00:08:52;;;;;;;22.50;9.83;;;5.60;99.90;;;;;;4094169;28;20507;-76
2021/12/18 00:10:56;;;;;;;20.97;9.03;;;5.60;99.90;;;;;;4097742;29;20466;-77
2021/12/18 00:12:58;;;;;;;23.43;9.93;;;5.60;99.90;;;;;;4096456;28;20573;-78
2021/12/18 00:15:00;;;;;;;20.50;9.67;;;5.70;99.90;;;;;;4093865;28;20845;-78
2021/12/18 00:17:03;;;;;;;20.30;9.90;;;5.60;99.90;;;;;;4096710;28;20471;-76
2021/12/18 00:19:05;;;;;;;20.10;9.50;;;5.70;99.90;;;;;;4094519;28;20465;-76
2021/12/18 00:21:09;;;;;;;21.37;9.47;;;5.70;99.90;;;;;;4096632;29;20472;-76
2021/12/18 00:23:12;;;;;;;19.90;8.93;;;5.70;99.90;;;;;;4092698;28;20497;-76
2021/12/18 00:25:14;;;;;;;20.60;9.57;;;5.60;99.90;;;;;;4095927;29;20498;-77
2021/12/18 00:27:16;;;;;;;21.37;9.33;;;5.70;99.90;;;;;;4096037;29;20493;-76
2021/12/18 00:29:18;;;;;;;23.80;10.30;;;5.70;99.90;;;;;;4094913;28;20497;-78
2021/12/18 00:31:20;;;;;;;20.17;9.43;;;5.70;99.90;;;;;;4093956;29;20517;-78
2021/12/18 00:33:23;;;;;;;24.80;9.73;;;5.60;99.90;;;;;;4093666;28;20962;-76
2021/12/18 00:35:25;;;;;;;25.23;10.37;;;5.70;99.90;;;;;;4093033;29;20478;-78
2021/12/18 00:37:27;;;;;;;22.40;9.87;;;5.60;99.90;;;;;;4090463;28;20460;-79
2021/12/18 00:39:32;;;;;;;23.07;10.33;;;5.60;99.90;;;;;;4092513;28;20892;-79
2021/12/18 00:41:48;;;;;;;21.23;9.90;;;5.60;99.90;;;;;;4083358;29;20506;-76
2021/12/18 00:44:03;;;;;;;22.50;9.77;;;5.60;99.90;;;;;;4084036;29;20498;-78
2021/12/18 00:46:05;;;;;;;25.53;11.17;;;5.60;99.90;;;;;;4142957;23;20503;-77
2021/12/18 00:48:07;;;;;;;20.63;9.67;;;5.60;99.90;;;;;;4140925;28;20498;-78
2021/12/18 00:50:11;;;;;;;24.43;10.03;;;5.50;99.90;;;;;;4141957;28;20475;-78
2021/12/18 00:52:13;;;;;;;22.70;10.13;;;5.50;99.90;;;;;;4137470;28;20459;-76
2021/12/18 00:54:15;;;;;;;25.43;10.90;;;5.60;99.90;;;;;;4145612;28;20469;-78
2021/12/18 00:56:18;;;;;;;26.83;10.47;;;5.50;99.90;;;;;;4147110;28;20545;-78
2021/12/18 00:58:20;;;;;;;23.40;10.50;;;5.50;99.90;;;;;;4142684;28;20467;-78
2021/12/18 01:00:24;;;;;;;23.50;10.40;;;5.50;99.90;;;;;;4130094;28;20464;-78
2021/12/18 01:02:25;;;;;;;22.93;9.80;;;5.50;99.90;;;;;;4129932;28;20484;-79
2021/12/18 01:04:27;;;;;;;24.40;10.77;;;5.50;99.90;;;;;;4144922;28;21077;-79
2021/12/18 01:06:29;;;;;;;26.13;11.27;;;5.50;99.90;;;;;;4145177;28;20794;-80
2021/12/18 01:08:31;;;;;;;30.47;11.80;;;5.50;99.90;;;;;;4145550;28;20490;-78
2021/12/18 01:10:54;;;;;;;28.70;11.40;;;5.50;99.90;;;;;;4145580;28;20956;-78
2021/12/18 01:12:59;;;;;;;30.33;11.10;;;5.50;99.90;;;;;;4137010;28;20944;-78
2021/12/18 01:15:17;;;;;;;23.33;10.93;;;5.50;99.90;;;;;;4144654;28;20580;-77
2021/12/18 01:24:19;;;;;;;28.33;11.67;;;5.50;99.90;;;;;;4145479;28;20442;-79
2021/12/18 01:26:21;;;;;;;25.73;10.47;;;5.50;99.90;;;;;;4147703;28;20517;-77
2021/12/18 01:28:25;;;;;;;27.87;10.87;;;5.40;99.90;;;;;;4149104;28;20463;-78
2021/12/18 01:30:27;;;;;;;26.43;10.83;;;5.50;99.90;;;;;;4144970;28;20510;-78
2021/12/18 01:32:29;;;;;;;28.23;10.73;;;5.50;99.90;;;;;;4140668;28;20460;-78
2021/12/18 01:34:31;;;;;;;24.83;10.70;;;5.50;99.90;;;;;;4148247;28;20841;-78
2021/12/18 01:36:33;;;;;;;25.27;10.73;;;5.50;99.90;;;;;;4148586;28;20463;-77
2021/12/18 01:38:35;;;;;;;25.97;11.47;;;5.50;99.90;;;;;;4148305;28;20895;-78
2021/12/18 01:40:37;;;;;;;27.80;11.67;;;5.50;99.90;;;;;;4147789;28;20566;-78
2021/12/18 01:45:08;;;;;;;26.40;11.77;;;5.50;99.90;;;;;;4153117;28;20862;-78
2021/12/18 01:51:15;;;;;;;28.20;12.17;;;5.40;99.90;;;;;;4147724;28;20494;-78
2021/12/18 01:52:16;;;;;;;25.13;10.87;;;5.40;99.90;;;;;;4140415;28;20513;-77
2021/12/18 01:54:18;;;;;;;27.20;11.40;;;5.40;99.90;;;;;;4153425;28;20464;-79
2021/12/18 01:56:20;;;;;;;25.57;11.17;;;5.40;99.90;;;;;;4132092;28;20965;-78
2021/12/18 01:58:24;;;;;;;21.13;10.27;;;5.40;99.90;;;;;;4133317;28;20467;-78
2021/12/18 02:00:30;;;;;;;27.27;10.70;;;5.40;99.90;;;;;;4132551;28;20487;-78
2021/12/18 02:02:32;;;;;;;25.33;11.13;;;5.40;99.90;;;;;;4138645;28;20479;-78
2021/12/18 02:04:35;;;;;;;28.53;11.60;;;5.30;99.90;;;;;;4148635;28;20951;-78
2021/12/18 02:06:36;;;;;;;31.40;12.03;;;5.40;99.90;;;;;;4148297;28;20459;-78
2021/12/18 02:08:39;;;;;;;30.67;12.30;;;5.30;99.90;;;;;;4148508;28;20507;-78
2021/12/18 02:10:46;;;;;;;26.43;11.40;;;5.30;99.90;;;;;;4147773;28;20466;-79
2021/12/18 02:12:56;;;;;;;22.33;9.90;;;5.30;99.90;;;;;;4133242;28;20784;-77
2021/12/18 02:19:58;;;;;;;26.37;10.77;;;5.30;99.90;;;;;;4137316;28;21021;-78
2021/12/18 02:22:03;;;;;;;24.00;9.93;;;5.30;99.90;;;;;;4137020;28;20475;-79
2021/12/18 02:24:05;;;;;;;28.93;11.53;;;5.30;99.90;;;;;;4146658;28;20842;-79
2021/12/18 02:26:07;;;;;;;26.47;10.77;;;5.30;99.90;;;;;;4148495;28;20491;-78
2021/12/18 02:28:15;;;;;;;29.40;11.90;;;5.30;99.90;;;;;;4131784;28;20897;-78
2021/12/18 02:30:17;;;;;;;29.03;12.27;;;5.30;99.90;;;;;;4143452;28;20465;-78
2021/12/18 02:32:21;;;;;;;27.80;11.30;;;5.30;99.90;;;;;;4147839;28;21025;-78
2021/12/18 02:34:27;;;;;;;30.73;12.80;;;5.30;99.90;;;;;;4146564;28;20479;-79
2021/12/18 02:36:29;;;;;;;29.20;11.90;;;5.30;99.90;;;;;;4147601;28;20975;-79
2021/12/18 02:38:46;;;;;;;30.27;12.10;;;5.30;99.90;;;;;;4144757;28;21030;-78
2021/12/18 02:41:02;;;;;;;28.67;11.30;;;5.30;99.90;;;;;;4147701;28;20566;-80
2021/12/18 02:43:05;;;;;;;27.87;11.60;;;5.30;99.90;;;;;;4143518;28;20524;-79
2021/12/18 02:45:08;;;;;;;30.97;11.57;;;5.30;99.90;;;;;;4147803;28;20585;-78
2021/12/18 02:47:12;;;;;;;29.17;11.87;;;5.20;99.90;;;;;;4145779;28;20502;-78
2021/12/18 02:49:16;;;;;;;29.53;11.37;;;5.20;99.90;;;;;;4131047;28;20858;-78
2021/12/18 02:51:19;;;;;;;27.83;10.83;;;5.20;99.90;;;;;;4134608;28;20471;-78
2021/12/18 02:53:21;;;;;;;29.60;11.43;;;5.20;99.90;;;;;;4142100;28;20818;-78
2021/12/18 02:55:24;;;;;;;30.97;13.13;;;5.20;99.90;;;;;;4137458;28;21011;-79
2021/12/18 02:57:26;;;;;;;28.50;11.40;;;5.20;99.90;;;;;;4151063;28;20529;-78
2021/12/18 02:59:28;;;;;;;31.10;11.90;;;5.20;99.90;;;;;;4148064;28;20931;-78
2021/12/18 03:01:32;;;;;;;29.20;11.23;;;5.20;99.90;;;;;;4145786;28;20509;-78
2021/12/18 03:03:37;;;;;;;27.50;11.27;;;5.20;99.90;;;;;;4130939;28;20463;-78
2021/12/18 03:05:46;;;;;;;31.57;11.43;;;5.20;99.90;;;;;;4130542;28;20542;-80
2021/12/18 03:07:54;;;;;;;30.03;11.17;;;5.20;99.90;;;;;;4148872;28;20517;-78
2021/12/18 03:22:25;;;;;;;29.80;11.17;;;5.20;99.90;;;;;;4139776;28;20459;-79
2021/12/18 03:24:23;;;;;;;30.80;11.63;;;5.20;99.90;;;;;;4129905;28;20458;-78
2021/12/18 03:26:25;;;;;;;27.93;11.07;;;5.20;99.90;;;;;;4143839;28;20450;-80
2021/12/18 03:28:29;;;;;;;28.67;12.03;;;5.20;99.90;;;;;;4145162;28;21063;-78
2021/12/18 03:30:32;;;;;;;26.00;10.90;;;5.20;99.90;;;;;;4144814;28;20478;-78
2021/12/18 03:32:33;;;;;;;27.47;10.80;;;5.10;99.90;;;;;;4147480;28;20458;-80
2021/12/18 03:34:35;;;;;;;29.67;11.60;;;5.10;99.90;;;;;;4146547;28;20536;-79
2021/12/18 03:36:37;;;;;;;27.27;10.87;;;5.10;99.90;;;;;;4147177;28;20454;-79
2021/12/18 03:38:39;;;;;;;29.73;11.03;;;5.10;99.90;;;;;;4146480;28;20446;-80
2021/12/18 03:40:41;;;;;;;27.77;10.97;;;5.10;99.90;;;;;;4138749;28;20502;-78
2021/12/18 03:42:42;;;;;;;28.20;11.70;;;5.10;99.90;;;;;;4145494;28;20517;-78
2021/12/18 03:44:45;;;;;;;30.70;11.33;;;5.10;99.90;;;;;;4144933;28;20478;-78
2021/12/18 03:46:47;;;;;;;30.40;10.90;;;5.20;99.90;;;;;;4147208;28;20952;-78
2021/12/18 03:48:49;;;;;;;29.93;11.53;;;5.10;99.90;;;;;;4141234;28;20521;-78
2021/12/18 03:50:52;;;;;;;30.70;11.07;;;5.10;99.90;;;;;;4145729;28;20521;-78
2021/12/18 03:52:55;;;;;;;29.70;11.10;;;5.10;99.90;;;;;;4146392;28;20532;-78
2021/12/18 03:54:59;;;;;;;24.87;10.17;;;5.10;99.90;;;;;;4146184;28;20483;-78
2021/12/18 03:57:01;;;;;;;26.50;10.77;;;5.10;99.90;;;;;;4146099;28;20511;-78
2021/12/18 03:59:03;;;;;;;26.73;10.63;;;5.10;99.90;;;;;;4146234;28;20458;-79
2021/12/18 04:01:06;;;;;;;26.23;10.90;;;5.10;99.90;;;;;;4146036;28;20456;-79
2021/12/18 04:03:08;;;;;;;24.90;10.40;;;5.10;99.90;;;;;;4142417;28;20460;-79
2021/12/18 04:05:10;;;;;;;26.33;10.63;;;5.10;99.90;;;;;;4137076;28;20494;-78
2021/12/18 04:07:14;;;;;;;27.53;10.50;;;5.10;99.90;;;;;;4147252;28;20455;-79
2021/12/18 04:09:15;;;;;;;29.47;10.87;;;5.10;99.90;;;;;;4153021;28;20838;-79
2021/12/18 04:11:18;;;;;;;29.93;12.03;;;5.10;99.90;;;;;;4146986;28;20944;-78
2021/12/18 04:13:19;;;;;;;29.83;11.47;;;5.10;99.90;;;;;;4146626;28;20459;-78
2021/12/18 04:15:21;;;;;;;30.97;11.70;;;5.00;99.90;;;;;;4133230;28;20494;-79
2021/12/18 04:17:24;;;;;;;25.63;10.53;;;5.10;99.90;;;;;;4130927;28;20535;-80
2021/12/18 04:19:26;;;;;;;29.03;11.50;;;5.10;99.90;;;;;;4154330;28;20462;-79
2021/12/18 04:21:28;;;;;;;31.30;11.90;;;5.10;99.90;;;;;;4134403;28;20549;-78
2021/12/18 04:23:30;;;;;;;26.20;10.87;;;5.10;99.90;;;;;;4140793;28;20451;-79
2021/12/18 04:25:32;;;;;;;27.60;11.67;;;5.10;99.90;;;;;;4145680;28;20471;-79
2021/12/18 04:27:34;;;;;;;28.50;11.23;;;5.00;99.90;;;;;;4141676;28;20470;-78
2021/12/18 04:29:36;;;;;;;27.97;10.93;;;5.00;99.90;;;;;;4142902;28;20459;-79
2021/12/18 04:31:39;;;;;;;29.50;11.57;;;5.10;99.90;;;;;;4130719;28;20451;-78
2021/12/18 04:33:42;;;;;;;33.60;11.90;;;5.00;99.90;;;;;;4130750;28;20460;-79
2021/12/18 04:35:44;;;;;;;28.47;11.70;;;5.10;99.90;;;;;;4141375;28;20491;-79
2021/12/18 04:37:46;;;;;;;29.30;11.43;;;5.10;99.90;;;;;;4156372;28;20982;-79
2021/12/18 04:39:48;;;;;;;30.50;11.50;;;5.10;99.90;;;;;;4139531;28;20473;-80
2021/12/18 04:41:52;;;;;;;33.80;11.97;;;5.10;99.90;;;;;;4156557;28;20943;-79
2021/12/18 04:43:53;;;;;;;33.13;13.47;;;5.00;99.90;;;;;;4145929;28;20479;-78
2021/12/18 04:45:55;;;;;;;28.67;11.67;;;5.00;99.90;;;;;;4145826;28;21089;-78
2021/12/18 04:47:57;;;;;;;29.73;12.07;;;5.00;99.90;;;;;;4139816;28;20878;-78
2021/12/18 04:50:00;;;;;;;31.67;12.93;;;5.00;99.90;;;;;;4146092;28;20485;-78
2021/12/18 04:52:03;;;;;;;30.47;11.73;;;5.00;99.90;;;;;;4146141;28;20884;-79
2021/12/18 04:54:05;;;;;;;32.27;12.57;;;5.00;99.90;;;;;;4133334;28;20969;-78
2021/12/18 04:56:07;;;;;;;27.50;10.83;;;5.00;99.90;;;;;;4131334;28;20492;-78
2021/12/18 04:58:08;;;;;;;31.47;11.23;;;5.00;99.90;;;;;;4144406;28;20845;-80
2021/12/18 05:00:13;;;;;;;27.27;10.83;;;5.00;99.90;;;;;;4149002;28;20484;-78
2021/12/18 05:02:20;;;;;;;26.47;11.03;;;5.00;99.90;;;;;;4164681;28;20519;-79
2021/12/18 05:04:21;;;;;;;28.30;11.57;;;5.10;99.90;;;;;;4150600;28;20512;-78
2021/12/18 05:06:25;;;;;;;28.63;11.97;;;5.00;99.90;;;;;;4136807;28;20481;-78
2021/12/18 05:08:26;;;;;;;27.27;12.03;;;5.10;99.90;;;;;;4146840;28;20517;-79
2021/12/18 05:10:28;;;;;;;28.97;11.63;;;5.00;99.90;;;;;;4144659;28;20480;-78
2021/12/18 05:12:30;;;;;;;26.90;11.57;;;5.10;99.90;;;;;;4148466;28;20458;-77
2021/12/18 05:14:32;;;;;;;30.80;11.77;;;5.10;99.90;;;;;;4149367;28;20963;-78
2021/12/18 05:16:34;;;;;;;27.27;11.07;;;5.10;99.90;;;;;;4138294;28;20460;-78
2021/12/18 05:18:35;;;;;;;30.53;11.60;;;5.10;99.90;;;;;;4139988;28;20524;-79
2021/12/18 05:20:37;;;;;;;31.73;12.00;;;5.20;99.90;;;;;;4139789;28;20455;-79
2021/12/18 05:22:40;;;;;;;28.53;11.97;;;5.10;99.90;;;;;;4146972;28;20494;-80
2021/12/18 05:24:42;;;;;;;27.60;11.17;;;5.10;99.90;;;;;;4133256;28;20498;-78
2021/12/18 05:26:43;;;;;;;25.50;11.23;;;5.10;99.90;;;;;;4136190;28;20451;-78
2021/12/18 05:28:45;;;;;;;27.73;11.67;;;5.10;99.90;;;;;;4149065;28;20498;-78
2021/12/18 05:30:47;;;;;;;27.77;11.43;;;5.10;99.90;;;;;;4148873;28;20516;-81
2021/12/18 05:32:49;;;;;;;27.73;11.60;;;5.10;99.90;;;;;;4138419;28;20467;-78
2021/12/18 05:34:50;;;;;;;25.10;10.50;;;5.10;99.90;;;;;;4145945;28;20526;-79
2021/12/18 05:39:15;;;;;;;27.43;10.93;;;5.10;99.90;;;;;;4143786;28;20526;-78
2021/12/18 05:41:17;;;;;;;28.03;11.80;;;5.10;99.90;;;;;;4135615;28;20475;-78
2021/12/18 05:43:18;;;;;;;27.27;11.10;;;5.20;99.90;;;;;;4157406;28;20455;-78
2021/12/18 05:45:21;;;;;;;28.27;11.73;;;5.10;99.90;;;;;;4148459;28;20487;-78
2021/12/18 05:47:22;;;;;;;30.43;11.60;;;5.20;99.90;;;;;;4147502;28;20459;-78
2021/12/18 05:49:24;;;;;;;28.20;11.97;;;5.10;99.90;;;;;;4143503;28;20501;-78
2021/12/18 05:51:26;;;;;;;26.77;10.87;;;5.10;99.90;;;;;;4148692;28;20469;-80
2021/12/18 05:53:27;;;;;;;30.37;11.67;;;5.10;99.90;;;;;;4156784;28;20860;-81
2021/12/18 05:55:31;;;;;;;28.50;11.17;;;5.10;99.90;;;;;;4141215;28;20989;-78
2021/12/18 05:57:33;;;;;;;29.43;11.93;;;5.10;99.90;;;;;;4133967;28;20475;-79
2021/12/18 05:59:35;;;;;;;25.20;10.53;;;5.10;99.90;;;;;;4132722;28;20460;-78
2021/12/18 06:01:37;;;;;;;28.03;11.70;;;5.20;99.90;;;;;;4146009;28;20469;-79
2021/12/18 06:03:39;;;;;;;27.73;11.67;;;5.10;99.90;;;;;;4146332;28;20852;-79
2021/12/18 06:05:40;;;;;;;27.90;11.40;;;5.10;99.90;;;;;;4146731;28;20489;-78
2021/12/18 06:07:54;;;;;;;29.27;11.47;;;5.10;99.90;;;;;;4132703;28;20976;-80
2021/12/18 06:09:56;;;;;;;27.47;11.00;;;5.10;99.90;;;;;;4145156;28;20849;-78
2021/12/18 06:12:00;;;;;;;26.73;10.43;;;5.10;99.90;;;;;;4146757;28;20462;-78
2021/12/18 06:14:02;;;;;;;28.57;11.90;;;5.10;99.90;;;;;;4147417;28;20475;-78
2021/12/18 06:16:06;;;;;;;26.23;10.80;;;5.10;99.90;;;;;;4139898;28;20499;-79
2021/12/18 06:18:08;;;;;;;25.40;11.07;;;5.10;99.90;;;;;;4149979;28;20444;-78
2021/12/18 06:20:10;;;;;;;28.47;11.07;;;5.10;99.90;;;;;;4142091;28;20471;-79
2021/12/18 06:22:12;;;;;;;29.80;12.23;;;5.10;99.90;;;;;;4145539;28;20459;-78
2021/12/18 06:24:14;;;;;;;30.40;11.77;;;5.10;99.90;;;;;;4133780;28;20612;-78
2021/12/18 06:26:17;;;;;;;28.57;11.40;;;5.10;99.90;;;;;;4131254;28;20479;-78
2021/12/18 06:28:20;;;;;;;31.63;11.53;;;5.10;99.90;;;;;;4136811;28;20897;-78
2021/12/18 06:30:21;;;;;;;30.70;11.07;;;5.10;99.90;;;;;;4148046;28;20509;-78
2021/12/18 06:32:23;;;;;;;25.57;10.80;;;5.10;99.90;;;;;;4158415;28;20469;-81
2021/12/18 06:34:25;;;;;;;30.17;10.60;;;5.10;99.90;;;;;;4145129;28;20536;-79
2021/12/18 06:36:26;;;;;;;27.67;10.57;;;5.10;99.90;;;;;;4146220;28;20481;-77
2021/12/18 06:38:28;;;;;;;26.67;11.57;;;5.10;99.90;;;;;;4145622;28;20482;-77
2021/12/18 06:40:30;;;;;;;29.73;12.23;;;5.10;99.90;;;;;;4147024;28;20459;-76
2021/12/18 06:42:32;;;;;;;28.50;11.67;;;5.10;99.90;;;;;;4148338;28;20565;-77
2021/12/18 06:44:35;;;;;;;25.70;10.17;;;5.10;99.90;;;;;;4145186;28;20475;-81
2021/12/18 06:46:36;;;;;;;28.53;11.63;;;5.10;99.90;;;;;;4168006;23;20514;-83
2021/12/18 06:48:38;;;;;;;26.50;10.67;;;5.10;99.90;;;;;;4147663;28;20513;-83
2021/12/18 06:50:40;;;;;;;28.63;11.73;;;5.10;99.90;;;;;;4138655;28;20466;-84
2021/12/18 06:52:42;;;;;;;27.57;11.67;;;5.20;99.90;;;;;;4146940;28;20486;-84
2021/12/18 06:54:43;;;;;;;31.77;12.97;;;5.10;99.90;;;;;;4148780;28;20480;-82
2021/12/18 06:56:45;;;;;;;33.47;12.10;;;5.20;99.90;;;;;;4149361;28;20482;-82
2021/12/18 06:58:47;;;;;;;34.93;13.53;;;5.10;99.90;;;;;;4148336;28;20506;-84
2021/12/18 07:00:52;;;;;;;35.50;13.87;;;5.30;99.90;;;;;;4143971;28;20478;-84
2021/12/18 07:02:55;;;;;;;36.63;13.87;;;5.20;99.90;;;;;;4147360;28;20480;-84
2021/12/18 07:04:57;;;;;;;33.27;13.77;;;5.20;99.90;;;;;;4151953;28;20586;-84
2021/12/18 07:06:58;;;;;;;35.93;14.03;;;5.20;99.90;;;;;;4148709;28;20949;-83
2021/12/18 07:09:00;;;;;;;35.50;14.47;;;5.20;99.90;;;;;;4145145;28;20541;-84
2021/12/18 07:11:02;;;;;;;34.77;13.93;;;5.20;99.90;;;;;;4146185;28;20471;-84
2021/12/18 07:13:04;;;;;;;37.57;15.50;;;5.20;99.90;;;;;;4143555;28;22451;-84
2021/12/18 07:15:07;;;;;;;38.53;14.87;;;5.20;99.90;;;;;;4162606;28;20454;-84
2021/12/18 07:17:11;;;;;;;33.47;14.47;;;5.20;99.90;;;;;;4147700;28;20971;-84
2021/12/18 07:19:12;;;;;;;39.47;15.57;;;5.10;99.90;;;;;;4144318;28;20473;-84
2021/12/18 07:21:14;;;;;;;39.33;15.23;;;5.20;99.90;;;;;;4152639;28;20439;-84
2021/12/18 07:23:16;;;;;;;44.40;16.63;;;5.10;99.90;;;;;;4145129;28;20525;-84
2021/12/18 07:25:18;;;;;;;38.33;15.43;;;5.10;99.90;;;;;;4145725;28;20513;-84
2021/12/18 07:27:19;;;;;;;33.67;13.70;;;5.10;99.90;;;;;;4147922;28;20490;-84
2021/12/18 07:29:21;;;;;;;32.23;14.27;;;5.10;99.90;;;;;;4145355;28;20494;-84
2021/12/18 07:31:23;;;;;;;35.83;14.17;;;5.10;99.90;;;;;;4143352;28;20479;-84
2021/12/18 07:33:26;;;;;;;31.90;14.43;;;5.10;99.90;;;;;;4144525;28;20521;-84
2021/12/18 07:35:28;;;;;;;33.87;14.43;;;5.10;99.90;;;;;;4147570;28;20609;-84
2021/12/18 07:37:29;;;;;;;36.33;14.07;;;5.10;99.90;;;;;;4148311;28;20462;-83
2021/12/18 07:39:31;;;;;;;32.33;13.03;;;5.20;99.90;;;;;;4138170;28;20836;-82
2021/12/18 07:41:33;;;;;;;32.27;12.63;;;5.10;99.90;;;;;;4142091;28;20483;-84
2021/12/18 07:43:35;;;;;;;30.67;13.27;;;5.10;99.90;;;;;;4140396;28;20544;-84
2021/12/18 07:45:37;;;;;;;29.20;12.53;;;5.10;99.90;;;;;;4147315;28;20872;-84
2021/12/18 07:47:39;;;;;;;31.67;13.60;;;5.10;99.90;;;;;;4146510;28;20462;-84
2021/12/18 07:49:42;;;;;;;30.27;12.60;;;5.10;99.90;;;;;;4141526;28;20546;-84
2021/12/18 07:51:44;;;;;;;29.33;13.07;;;5.20;99.90;;;;;;4147259;28;20463;-84
2021/12/18 07:53:46;;;;;;;28.83;12.87;;;5.20;99.90;;;;;;4141151;28;20952;-84
2021/12/18 07:55:47;;;;;;;30.17;12.83;;;5.20;99.90;;;;;;4146969;28;20735;-84
2021/12/18 07:57:50;;;;;;;31.27;13.37;;;5.30;99.90;;;;;;4139502;28;20530;-84
2021/12/18 07:59:52;;;;;;;28.30;12.53;;;5.20;99.90;;;;;;4149768;28;20494;-84
2021/12/18 08:01:54;;;;;;;34.10;13.93;;;6.00;99.90;;;;;;4141284;28;20852;-84
2021/12/18 08:03:56;;;;;;;32.60;13.73;;;5.20;99.90;;;;;;4144432;28;20502;-84
2021/12/18 08:05:59;;;;;;;33.10;13.83;;;5.20;99.90;;;;;;4142833;28;20487;-84
2021/12/18 08:08:01;;;;;;;29.33;12.77;;;5.20;99.90;;;;;;4138364;28;20495;-84
2021/12/18 08:10:06;;;;;;;29.87;12.77;;;5.20;99.90;;;;;;4142367;28;21011;-84
2021/12/18 08:12:08;;;;;;;27.03;12.77;;;5.20;99.90;;;;;;4146444;28;20474;-84
2021/12/18 08:14:10;;;;;;;30.87;12.27;;;5.20;99.90;;;;;;4147444;28;20513;-82
2021/12/18 08:16:12;;;;;;;28.67;12.33;;;5.20;99.90;;;;;;4146023;28;21085;-83
2021/12/18 08:18:13;;;;;;;26.47;11.57;;;5.20;99.90;;;;;;4147854;28;20446;-83
2021/12/18 08:20:15;;;;;;;25.67;11.73;;;5.20;99.90;;;;;;4153428;28;20471;-85
2021/12/18 08:22:18;;;;;;;25.70;11.00;;;5.20;99.90;;;;;;4157980;28;20974;-85
2021/12/18 08:24:20;;;;;;;24.63;11.13;;;5.20;99.90;;;;;;4160756;28;20447;-85
2021/12/18 08:26:22;;;;;;;22.90;10.27;;;5.30;99.90;;;;;;4151454;28;20506;-84
2021/12/18 08:28:24;;;;;;;23.97;10.23;;;5.20;99.90;;;;;;4145948;28;20471;-82
2021/12/18 08:30:25;;;;;;;26.10;10.70;;;5.30;99.90;;;;;;4143144;28;20582;-83
2021/12/18 08:32:27;;;;;;;18.47;8.67;;;5.30;99.90;;;;;;4139636;28;20557;-84
2021/12/18 08:34:29;;;;;;;23.07;9.60;;;5.30;99.90;;;;;;4142758;28;20481;-83
2021/12/18 08:36:31;;;;;;;20.33;9.33;;;5.30;99.90;;;;;;4147278;28;20614;-81
2021/12/18 08:38:34;;;;;;;21.60;10.07;;;5.30;99.90;;;;;;4143185;28;20971;-84
2021/12/18 08:40:37;;;;;;;23.60;10.53;;;5.30;99.90;;;;;;4144526;28;20458;-84
2021/12/18 08:42:39;;;;;;;23.40;11.13;;;5.30;99.90;;;;;;4139304;28;20463;-84
2021/12/18 08:44:41;;;;;;;22.73;10.10;;;5.30;99.90;;;;;;4142870;28;20521;-86
2021/12/18 08:46:43;;;;;;;24.87;10.87;;;5.30;99.90;;;;;;4141034;28;21042;-86
2021/12/18 08:48:45;;;;;;;23.60;10.50;;;5.30;99.90;;;;;;4142032;28;20463;-87
2021/12/18 08:50:47;;;;;;;28.83;12.23;;;5.30;99.90;;;;;;4144508;28;20498;-87
2021/12/18 08:52:50;;;;;;;30.50;14.27;;;5.30;99.90;;;;;;4146655;28;20887;-87
2021/12/18 08:54:53;;;;;;;29.60;13.00;;;5.30;99.90;;;;;;4144270;28;20451;-87
2021/12/18 08:56:55;;;;;;;30.07;14.03;;;5.30;99.90;;;;;;4163815;28;20463;-86
2021/12/18 08:58:58;;;;;;;28.57;13.07;;;5.30;99.90;;;;;;4145143;28;20471;-88
2021/12/18 09:01:00;;;;;;;28.00;13.00;;;5.30;99.90;;;;;;4148857;28;20539;-87
2021/12/18 09:03:02;;;;;;;31.03;13.10;;;5.30;99.90;;;;;;4149177;28;20471;-87
2021/12/18 09:05:05;;;;;;;27.37;11.97;;;5.30;99.90;;;;;;4151007;28;21006;-87
2021/12/18 09:07:08;;;;;;;24.67;10.50;;;5.30;99.90;;;;;;4145448;28;20459;-86
2021/12/18 09:09:09;;;;;;;22.83;9.93;;;5.30;99.90;;;;;;4143379;28;20459;-87
2021/12/18 09:11:13;;;;;;;23.77;10.27;;;5.30;99.90;;;;;;4143912;28;20965;-86
2021/12/18 09:13:17;;;;;;;27.03;11.17;;;5.30;99.90;;;;;;4154903;28;20832;-85
2021/12/18 09:15:20;;;;;;;27.97;10.80;;;6.10;99.90;;;;;;4146764;28;21091;-86
2021/12/18 09:17:21;;;;;;;21.63;9.70;;;5.40;99.90;;;;;;4154663;28;20463;-86
2021/12/18 09:19:23;;;;;;;23.67;9.20;;;5.30;99.90;;;;;;4146521;28;20826;-86
2021/12/18 09:21:25;;;;;;;23.20;9.90;;;5.40;99.90;;;;;;4146284;28;20496;-86
2021/12/18 09:23:27;;;;;;;23.27;9.37;;;5.40;99.90;;;;;;4152545;28;20875;-87
2021/12/18 09:25:29;;;;;;;22.17;9.50;;;5.40;99.90;;;;;;4151883;28;20490;-89
2021/12/18 09:27:32;;;;;;;21.57;9.17;;;5.40;99.90;;;;;;4139355;28;20823;-87
2021/12/18 09:29:34;;;;;;;20.20;8.97;;;5.10;99.90;;;;;;4143247;28;20542;-87
2021/12/18 09:31:36;;;;;;;21.80;8.60;;;5.40;99.90;;;;;;4150251;28;20464;-85
2021/12/18 09:33:38;;;;;;;20.17;8.77;;;5.40;99.90;;;;;;4148507;28;20842;-86
2021/12/18 09:35:40;;;;;;;19.27;8.43;;;5.40;99.90;;;;;;4140222;28;20486;-84
2021/12/18 09:37:42;;;;;;;19.93;9.17;;;5.40;99.90;;;;;;4145317;28;20455;-83
2021/12/18 09:39:44;;;;;;;22.53;9.23;;;5.40;99.90;;;;;;4143156;28;20471;-84
2021/12/18 09:41:51;;;;;;;22.50;9.30;;;5.40;99.90;;;;;;4141545;28;20964;-83
2021/12/18 09:43:54;;;;;;;20.67;8.30;;;6.20;99.90;;;;;;4151803;28;20837;-85
2021/12/18 09:46:02;;;;;;;22.43;10.70;;;5.50;99.90;;;;;;4149837;28;20480;-84
2021/12/18 09:48:06;;;;;;;22.83;9.50;;;6.70;99.90;;;;;;4148756;28;20465;-88
2021/12/18 09:50:10;;;;;;;19.97;9.37;;;5.20;99.90;;;;;;4160077;28;20529;-82
2021/12/18 09:52:12;;;;;;;19.87;9.03;;;5.50;99.90;;;;;;4151520;28;20934;-78
2021/12/18 09:54:13;;;;;;;20.37;8.87;;;5.50;99.90;;;;;;4149803;28;20466;-81
2021/12/18 09:56:15;;;;;;;19.17;8.57;;;5.50;99.90;;;;;;4150063;28;20697;-77
2021/12/18 09:58:17;;;;;;;21.90;9.10;;;5.60;99.90;;;;;;4152901;28;20881;-79
2021/12/18 10:00:22;;;;;;;23.53;8.90;;;5.60;99.90;;;;;;4149465;28;20891;-79
2021/12/18 10:02:24;;;;;;;26.43;9.90;;;5.60;99.90;;;;;;4150130;28;20886;-80
2021/12/18 10:04:30;;;;;;;26.07;10.77;;;5.60;99.90;;;;;;4143772;28;20463;-80
2021/12/18 10:06:46;;;;;;;24.87;10.50;;;5.70;99.90;;;;;;4141189;28;20888;-79
2021/12/18 10:08:49;;;;;;;27.07;11.30;;;5.60;99.90;;;;;;4156560;28;20530;-84
2021/12/18 10:11:17;;;;;;;27.60;12.03;;;5.70;99.90;;;;;;4157273;28;20487;-81
2021/12/18 10:13:19;;;;;;;32.57;12.67;;;5.70;99.90;;;;;;4141673;28;20474;-80
2021/12/18 10:15:22;;;;;;;29.27;14.03;;;5.70;99.90;;;;;;4148367;28;20493;-80
2021/12/18 10:17:32;;;;;;;28.73;13.23;;;5.70;99.90;;;;;;4150894;28;20467;-80
2021/12/18 10:19:39;;;;;;;29.13;13.43;;;5.70;99.90;;;;;;4153806;28;20463;-79
2021/12/18 10:21:40;;;;;;;27.33;13.60;;;5.70;99.90;;;;;;4150302;28;20514;-79
2021/12/18 10:23:43;;;;;;;34.97;13.60;;;5.70;99.90;;;;;;4149446;28;20904;-80
2021/12/18 10:25:45;;;;;;;30.20;13.33;;;5.70;99.90;;;;;;4144772;28;20463;-81
2021/12/18 10:27:55;;;;;;;28.80;12.37;;;5.70;99.90;;;;;;4150535;28;20910;-83
2021/12/18 10:30:14;;;;;;;26.23;12.27;;;5.70;99.90;;;;;;4146138;28;20499;-80
2021/12/18 10:32:19;;;;;;;30.17;13.03;;;5.70;99.90;;;;;;4156728;28;20466;-83
2021/12/18 10:34:23;;;;;;;27.13;11.83;;;5.70;99.90;;;;;;4149370;28;20518;-85
2021/12/18 10:36:25;;;;;;;26.27;11.97;;;5.70;99.90;;;;;;4143669;28;20533;-78
2021/12/18 10:38:44;;;;;;;25.50;12.20;;;5.70;99.90;;;;;;4150533;28;20455;-80
2021/12/18 10:40:47;;;;;;;31.10;12.57;;;6.00;99.90;;;;;;4146459;28;20464;-81
2021/12/18 10:42:54;;;;;;;27.93;12.57;;;5.70;99.90;;;;;;4146766;28;20457;-80
2021/12/18 10:45:08;;;;;;;28.77;12.03;;;5.70;99.90;;;;;;4141898;28;20437;-80
2021/12/18 10:47:10;;;;;;;29.33;12.03;;;5.70;99.90;;;;;;4146366;28;20975;-79
2021/12/18 10:49:15;;;;;;;22.80;10.20;;;5.70;99.90;;;;;;4142981;28;20467;-80
2021/12/18 10:51:23;;;;;;;24.50;11.17;;;5.70;99.90;;;;;;4146772;28;20488;-79
2021/12/18 10:53:27;;;;;;;24.53;10.60;;;5.70;99.90;;;;;;4142115;28;20537;-86
2021/12/18 10:55:41;;;;;;;23.93;9.93;;;5.70;99.90;;;;;;4148579;28;20517;-79
2021/12/18 10:57:52;;;;;;;20.67;9.43;;;5.70;99.90;;;;;;4139086;28;20477;-77
2021/12/18 10:59:57;;;;;;;19.97;9.50;;;5.70;99.90;;;;;;4146162;28;20968;-77
2021/12/18 11:02:00;;;;;;;20.27;9.20;;;5.80;99.90;;;;;;4158338;28;21033;-77
2021/12/18 11:04:02;;;;;;;22.23;8.83;;;5.80;99.90;;;;;;4155218;28;20849;-77
2021/12/18 11:06:15;;;;;;;23.50;9.60;;;5.80;99.90;;;;;;4144544;28;20503;-78